Terminal Aerodrome Forecast
Issued by NWS Albany, NY

Home | Current Version | Previous Version | Text Only | Print | Product List | Glossary On
Versions: 1 2 3 4 5 6 7 8 9 10 11 12 13 14 15 16 17
353
FTUS41 KALY 121122
TAFPOU
TAF
KPOU 121122Z 1212/1312 00000KT P6SM SKC
     FM121500 23004KT P6SM SCT250
     FM122100 20007KT P6SM SCT080
     FM130700 25004KT P6SM VCSH SCT040 BKN080
     FM131100 29012KT P6SM BKN100=

USA.gov is the U.S. government's official web portal to all federal, state and local government web resources and services.